sensor_id;sensor_type;location;lat;lon;timestamp;temperature;humidity
5639;DHT22;2841;44.526;11.360;2023-04-25T00:01:32;13.80;69.00
5639;DHT22;2841;44.526;11.360;2023-04-25T00:04:01;13.70;69.10
5639;DHT22;2841;44.526;11.360;2023-04-25T00:06:28;13.70;69.30
5639;DHT22;2841;44.526;11.360;2023-04-25T00:08:56;13.70;69.30
5639;DHT22;2841;44.526;11.360;2023-04-25T00:11:23;13.50;69.20
5639;DHT22;2841;44.526;11.360;2023-04-25T00:13:50;13.40;69.30
5639;DHT22;2841;44.526;11.360;2023-04-25T00:16:16;13.40;69.50
5639;DHT22;2841;44.526;11.360;2023-04-25T00:18:43;13.40;69.60
5639;DHT22;2841;44.526;11.360;2023-04-25T00:21:11;13.30;69.50
5639;DHT22;2841;44.526;11.360;2023-04-25T00:23:38;13.20;69.60
5639;DHT22;2841;44.526;11.360;2023-04-25T00:26:06;13.20;69.90
5639;DHT22;2841;44.526;11.360;2023-04-25T00:28:33;13.20;69.90
5639;DHT22;2841;44.526;11.360;2023-04-25T00:30:59;13.20;69.90
5639;DHT22;2841;44.526;11.360;2023-04-25T00:33:26;13.10;69.90
5639;DHT22;2841;44.526;11.360;2023-04-25T00:35:53;13.10;70.00
5639;DHT22;2841;44.526;11.360;2023-04-25T00:38:20;13.00;70.00
5639;DHT22;2841;44.526;11.360;2023-04-25T00:40:47;13.00;70.10
5639;DHT22;2841;44.526;11.360;2023-04-25T00:43:15;13.00;70.20
5639;DHT22;2841;44.526;11.360;2023-04-25T00:45:42;12.90;70.10
5639;DHT22;2841;44.526;11.360;2023-04-25T00:48:09;12.90;70.30
5639;DHT22;2841;44.526;11.360;2023-04-25T00:50:36;12.90;70.40
5639;DHT22;2841;44.526;11.360;2023-04-25T00:53:03;12.80;70.30
5639;DHT22;2841;44.526;11.360;2023-04-25T00:55:30;12.80;70.40
5639;DHT22;2841;44.526;11.360;2023-04-25T00:57:57;12.90;70.50
5639;DHT22;2841;44.526;11.360;2023-04-25T01:00:26;12.80;70.40
5639;DHT22;2841;44.526;11.360;2023-04-25T01:02:52;12.80;70.50
5639;DHT22;2841;44.526;11.360;2023-04-25T01:05:19;12.80;70.60
5639;DHT22;2841;44.526;11.360;2023-04-25T01:07:46;12.70;70.60
5639;DHT22;2841;44.526;11.360;2023-04-25T01:10:13;12.70;70.70
5639;DHT22;2841;44.526;11.360;2023-04-25T01:12:40;12.70;70.80
5639;DHT22;2841;44.526;11.360;2023-04-25T01:15:07;12.70;70.90
5639;DHT22;2841;44.526;11.360;2023-04-25T01:17:35;12.60;70.80
5639;DHT22;2841;44.526;11.360;2023-04-25T01:20:02;12.60;70.90
5639;DHT22;2841;44.526;11.360;2023-04-25T01:22:31;12.60;70.90
5639;DHT22;2841;44.526;11.360;2023-04-25T01:24:57;12.60;71.10
5639;DHT22;2841;44.526;11.360;2023-04-25T01:27:25;12.60;71.10
5639;DHT22;2841;44.526;11.360;2023-04-25T01:29:52;12.60;71.20
5639;DHT22;2841;44.526;11.360;2023-04-25T01:32:20;12.60;71.20
5639;DHT22;2841;44.526;11.360;2023-04-25T01:34:47;12.60;71.30
5639;DHT22;2841;44.526;11.360;2023-04-25T01:37:14;12.50;71.20
5639;DHT22;2841;44.526;11.360;2023-04-25T01:39:42;12.40;71.30
5639;DHT22;2841;44.526;11.360;2023-04-25T01:42:09;12.40;71.50
5639;DHT22;2841;44.526;11.360;2023-04-25T01:44:36;12.40;71.50
5639;DHT22;2841;44.526;11.360;2023-04-25T01:47:02;12.50;71.70
5639;DHT22;2841;44.526;11.360;2023-04-25T01:49:29;12.50;71.60
5639;DHT22;2841;44.526;11.360;2023-04-25T01:51:56;12.40;71.60
5639;DHT22;2841;44.526;11.360;2023-04-25T01:54:23;12.40;71.70
5639;DHT22;2841;44.526;11.360;2023-04-25T01:56:51;12.40;71.80
5639;DHT22;2841;44.526;11.360;2023-04-25T01:59:18;12.40;71.80
5639;DHT22;2841;44.526;11.360;2023-04-25T02:01:45;12.40;71.70
5639;DHT22;2841;44.526;11.360;2023-04-25T02:04:11;12.40;71.90
5639;DHT22;2841;44.526;11.360;2023-04-25T02:06:38;12.40;71.90
5639;DHT22;2841;44.526;11.360;2023-04-25T02:09:05;12.40;71.90
5639;DHT22;2841;44.526;11.360;2023-04-25T02:11:32;12.40;72.10
5639;DHT22;2841;44.526;11.360;2023-04-25T02:14:00;12.30;72.00
5639;DHT22;2841;44.526;11.360;2023-04-25T02:16:26;12.30;72.20
5639;DHT22;2841;44.526;11.360;2023-04-25T02:18:53;12.20;72.10
5639;DHT22;2841;44.526;11.360;2023-04-25T02:21:20;12.20;72.30
5639;DHT22;2841;44.526;11.360;2023-04-25T02:23:46;12.10;72.20
5639;DHT22;2841;44.526;11.360;2023-04-25T02:26:14;12.10;72.40
5639;DHT22;2841;44.526;11.360;2023-04-25T02:28:41;12.10;72.40
5639;DHT22;2841;44.526;11.360;2023-04-25T02:31:09;12.10;72.60
5639;DHT22;2841;44.526;11.360;2023-04-25T02:33:36;12.10;72.60
5639;DHT22;2841;44.526;11.360;2023-04-25T02:36:03;12.10;72.70
5639;DHT22;2841;44.526;11.360;2023-04-25T02:38:29;12.00;72.60
5639;DHT22;2841;44.526;11.360;2023-04-25T02:40:56;12.00;72.70
5639;DHT22;2841;44.526;11.360;2023-04-25T02:43:23;12.00;72.80
5639;DHT22;2841;44.526;11.360;2023-04-25T02:45:49;11.90;72.80
5639;DHT22;2841;44.526;11.360;2023-04-25T02:48:18;11.90;72.90
5639;DHT22;2841;44.526;11.360;2023-04-25T02:50:44;11.90;73.00
5639;DHT22;2841;44.526;11.360;2023-04-25T02:53:11;11.90;73.10
5639;DHT22;2841;44.526;11.360;2023-04-25T02:55:38;11.90;73.20
5639;DHT22;2841;44.526;11.360;2023-04-25T02:58:05;11.80;73.10
5639;DHT22;2841;44.526;11.360;2023-04-25T03:00:32;11.80;73.20
5639;DHT22;2841;44.526;11.360;2023-04-25T03:02:59;11.80;73.40
5639;DHT22;2841;44.526;11.360;2023-04-25T03:05:27;11.80;73.40
5639;DHT22;2841;44.526;11.360;2023-04-25T03:07:54;11.80;73.50
5639;DHT22;2841;44.526;11.360;2023-04-25T03:10:21;11.90;73.70
5639;DHT22;2841;44.526;11.360;2023-04-25T03:12:47;11.80;73.60
5639;DHT22;2841;44.526;11.360;2023-04-25T03:15:14;11.90;73.70
5639;DHT22;2841;44.526;11.360;2023-04-25T03:17:42;11.80;73.60
5639;DHT22;2841;44.526;11.360;2023-04-25T03:20:09;11.80;73.70
5639;DHT22;2841;44.526;11.360;2023-04-25T03:22:38;11.80;73.90
5639;DHT22;2841;44.526;11.360;2023-04-25T03:25:05;11.80;73.80
5639;DHT22;2841;44.526;11.360;2023-04-25T03:27:32;11.70;73.90
5639;DHT22;2841;44.526;11.360;2023-04-25T03:29:59;11.70;74.00
5639;DHT22;2841;44.526;11.360;2023-04-25T03:32:25;11.70;74.10
5639;DHT22;2841;44.526;11.360;2023-04-25T03:34:52;11.60;74.20
5639;DHT22;2841;44.526;11.360;2023-04-25T03:37:19;11.60;74.60
5639;DHT22;2841;44.526;11.360;2023-04-25T03:39:47;11.60;74.50
5639;DHT22;2841;44.526;11.360;2023-04-25T03:42:14;11.60;74.50
5639;DHT22;2841;44.526;11.360;2023-04-25T03:44:41;11.50;74.50
5639;DHT22;2841;44.526;11.360;2023-04-25T03:47:08;11.50;74.80
5639;DHT22;2841;44.526;11.360;2023-04-25T03:49:36;11.60;74.90
5639;DHT22;2841;44.526;11.360;2023-04-25T03:52:03;11.60;74.90
5639;DHT22;2841;44.526;11.360;2023-04-25T03:54:30;11.60;74.80
5639;DHT22;2841;44.526;11.360;2023-04-25T03:56:58;11.50;74.80
5639;DHT22;2841;44.526;11.360;2023-04-25T03:59:24;11.50;75.00
5639;DHT22;2841;44.526;11.360;2023-04-25T04:01:51;11.50;75.20
5639;DHT22;2841;44.526;11.360;2023-04-25T04:04:18;11.50;75.40
5639;DHT22;2841;44.526;11.360;2023-04-25T04:06:44;11.50;75.50
5639;DHT22;2841;44.526;11.360;2023-04-25T04:09:11;11.50;75.50
5639;DHT22;2841;44.526;11.360;2023-04-25T04:11:38;11.60;75.70
5639;DHT22;2841;44.526;11.360;2023-04-25T04:14:07;11.60;76.40
5639;DHT22;2841;44.526;11.360;2023-04-25T04:16:35;11.60;75.90
5639;DHT22;2841;44.526;11.360;2023-04-25T04:19:02;11.60;76.00
5639;DHT22;2841;44.526;11.360;2023-04-25T04:21:28;11.60;75.90
5639;DHT22;2841;44.526;11.360;2023-04-25T04:23:55;11.50;76.20
5639;DHT22;2841;44.526;11.360;2023-04-25T04:26:23;11.60;76.50
5639;DHT22;2841;44.526;11.360;2023-04-25T04:28:50;11.60;76.60
5639;DHT22;2841;44.526;11.360;2023-04-25T04:31:18;11.70;76.70
5639;DHT22;2841;44.526;11.360;2023-04-25T04:33:45;11.70;76.80
5639;DHT22;2841;44.526;11.360;2023-04-25T04:36:12;11.70;76.70
5639;DHT22;2841;44.526;11.360;2023-04-25T04:38:39;11.70;76.90
5639;DHT22;2841;44.526;11.360;2023-04-25T04:41:06;11.70;76.90
5639;DHT22;2841;44.526;11.360;2023-04-25T04:43:33;11.70;76.90
5639;DHT22;2841;44.526;11.360;2023-04-25T04:46:00;11.70;77.40
5639;DHT22;2841;44.526;11.360;2023-04-25T04:48:28;11.60;77.70
5639;DHT22;2841;44.526;11.360;2023-04-25T04:50:58;11.60;78.10
5639;DHT22;2841;44.526;11.360;2023-04-25T04:53:24;11.60;78.30
5639;DHT22;2841;44.526;11.360;2023-04-25T04:55:51;11.60;78.60
5639;DHT22;2841;44.526;11.360;2023-04-25T04:58:18;11.60;78.70
5639;DHT22;2841;44.526;11.360;2023-04-25T05:00:44;11.70;78.90
5639;DHT22;2841;44.526;11.360;2023-04-25T05:03:11;11.70;79.00
5639;DHT22;2841;44.526;11.360;2023-04-25T05:05:40;11.80;79.00
5639;DHT22;2841;44.526;11.360;2023-04-25T05:08:07;11.90;79.00
5639;DHT22;2841;44.526;11.360;2023-04-25T05:10:34;11.90;79.00
5639;DHT22;2841;44.526;11.360;2023-04-25T05:13:01;12.00;79.20
5639;DHT22;2841;44.526;11.360;2023-04-25T05:15:28;12.00;79.30
5639;DHT22;2841;44.526;11.360;2023-04-25T05:17:55;12.10;79.50
5639;DHT22;2841;44.526;11.360;2023-04-25T05:20:22;12.10;79.40
5639;DHT22;2841;44.526;11.360;2023-04-25T05:22:50;12.10;79.60
5639;DHT22;2841;44.526;11.360;2023-04-25T05:25:17;12.20;80.00
5639;DHT22;2841;44.526;11.360;2023-04-25T05:27:44;12.20;79.90
5639;DHT22;2841;44.526;11.360;2023-04-25T05:30:11;12.20;79.70
5639;DHT22;2841;44.526;11.360;2023-04-25T05:32:37;12.20;80.30
5639;DHT22;2841;44.526;11.360;2023-04-25T05:35:06;12.10;80.30
5639;DHT22;2841;44.526;11.360;2023-04-25T05:37:33;12.20;81.00
5639;DHT22;2841;44.526;11.360;2023-04-25T05:40:01;12.30;81.20
5639;DHT22;2841;44.526;11.360;2023-04-25T05:42:32;12.40;81.00
5639;DHT22;2841;44.526;11.360;2023-04-25T05:44:58;12.40;80.70
5639;DHT22;2841;44.526;11.360;2023-04-25T05:47:25;12.40;81.40
5639;DHT22;2841;44.526;11.360;2023-04-25T05:49:53;12.30;81.30
5639;DHT22;2841;44.526;11.360;2023-04-25T05:52:19;12.30;81.60
5639;DHT22;2841;44.526;11.360;2023-04-25T05:54:46;12.30;81.90
5639;DHT22;2841;44.526;11.360;2023-04-25T05:57:19;12.40;82.60
5639;DHT22;2841;44.526;11.360;2023-04-25T05:59:46;12.50;82.60
5639;DHT22;2841;44.526;11.360;2023-04-25T06:02:13;12.50;82.30
5639;DHT22;2841;44.526;11.360;2023-04-25T06:04:39;12.50;82.30
5639;DHT22;2841;44.526;11.360;2023-04-25T06:07:06;12.50;82.70
5639;DHT22;2841;44.526;11.360;2023-04-25T06:09:33;12.60;82.70
5639;DHT22;2841;44.526;11.360;2023-04-25T06:12:00;12.60;83.10
5639;DHT22;2841;44.526;11.360;2023-04-25T06:14:28;12.70;83.00
5639;DHT22;2841;44.526;11.360;2023-04-25T06:16:55;12.70;83.10
5639;DHT22;2841;44.526;11.360;2023-04-25T06:19:22;12.70;83.00
5639;DHT22;2841;44.526;11.360;2023-04-25T06:21:49;12.70;83.50
5639;DHT22;2841;44.526;11.360;2023-04-25T06:24:15;12.80;84.10
5639;DHT22;2841;44.526;11.360;2023-04-25T06:26:42;12.70;83.60
5639;DHT22;2841;44.526;11.360;2023-04-25T06:29:09;12.80;84.40
5639;DHT22;2841;44.526;11.360;2023-04-25T06:31:37;12.80;84.30
5639;DHT22;2841;44.526;11.360;2023-04-25T06:34:04;12.80;84.10
5639;DHT22;2841;44.526;11.360;2023-04-25T06:36:31;12.90;85.20
5639;DHT22;2841;44.526;11.360;2023-04-25T06:38:57;12.90;85.10
5639;DHT22;2841;44.526;11.360;2023-04-25T06:41:24;13.00;85.20
5639;DHT22;2841;44.526;11.360;2023-04-25T06:43:51;13.00;85.90
5639;DHT22;2841;44.526;11.360;2023-04-25T06:46:17;13.00;86.20
5639;DHT22;2841;44.526;11.360;2023-04-25T06:48:46;13.00;87.90
5639;DHT22;2841;44.526;11.360;2023-04-25T06:51:12;13.00;89.00
5639;DHT22;2841;44.526;11.360;2023-04-25T06:53:39;13.00;89.10
5639;DHT22;2841;44.526;11.360;2023-04-25T06:56:06;13.10;90.50
5639;DHT22;2841;44.526;11.360;2023-04-25T06:58:33;13.00;90.20
5639;DHT22;2841;44.526;11.360;2023-04-25T07:01:00;13.00;91.60
5639;DHT22;2841;44.526;11.360;2023-04-25T07:03:26;13.00;92.00
5639;DHT22;2841;44.526;11.360;2023-04-25T07:05:54;13.00;92.90
5639;DHT22;2841;44.526;11.360;2023-04-25T07:08:21;13.10;93.90
5639;DHT22;2841;44.526;11.360;2023-04-25T07:10:48;13.00;95.90
5639;DHT22;2841;44.526;11.360;2023-04-25T07:13:14;13.00;96.30
5639;DHT22;2841;44.526;11.360;2023-04-25T07:15:41;13.00;97.60
5639;DHT22;2841;44.526;11.360;2023-04-25T07:18:08;13.00;98.40
5639;DHT22;2841;44.526;11.360;2023-04-25T07:20:35;13.10;98.20
5639;DHT22;2841;44.526;11.360;2023-04-25T07:23:04;13.10;99.20
5639;DHT22;2841;44.526;11.360;2023-04-25T07:25:30;13.10;99.90
5639;DHT22;2841;44.526;11.360;2023-04-25T07:27:57;13.10;99.90
5639;DHT22;2841;44.526;11.360;2023-04-25T07:30:24;13.10;99.90
5639;DHT22;2841;44.526;11.360;2023-04-25T07:32:50;13.10;99.90
5639;DHT22;2841;44.526;11.360;2023-04-25T07:35:17;13.20;99.90
5639;DHT22;2841;44.526;11.360;2023-04-25T07:37:44;13.20;99.90
5639;DHT22;2841;44.526;11.360;2023-04-25T07:40:13;13.30;99.90
5639;DHT22;2841;44.526;11.360;2023-04-25T07:42:41;13.30;99.90
5639;DHT22;2841;44.526;11.360;2023-04-25T07:45:07;13.40;99.90
5639;DHT22;2841;44.526;11.360;2023-04-25T07:47:35;13.50;99.90
5639;DHT22;2841;44.526;11.360;2023-04-25T07:50:01;13.50;99.90
5639;DHT22;2841;44.526;11.360;2023-04-25T07:52:28;13.40;99.90
5639;DHT22;2841;44.526;11.360;2023-04-25T07:54:55;13.40;99.90
5639;DHT22;2841;44.526;11.360;2023-04-25T07:57:24;13.40;99.90
5639;DHT22;2841;44.526;11.360;2023-04-25T07:59:51;13.60;99.90
5639;DHT22;2841;44.526;11.360;2023-04-25T08:02:17;13.80;99.90
5639;DHT22;2841;44.526;11.360;2023-04-25T08:04:44;14.00;99.90
5639;DHT22;2841;44.526;11.360;2023-04-25T08:07:11;14.10;99.90
5639;DHT22;2841;44.526;11.360;2023-04-25T08:09:38;14.20;99.90
5639;DHT22;2841;44.526;11.360;2023-04-25T08:12:05;14.40;99.90
5639;DHT22;2841;44.526;11.360;2023-04-25T08:14:33;14.50;99.90
5639;DHT22;2841;44.526;11.360;2023-04-25T08:17:02;14.60;99.90
5639;DHT22;2841;44.526;11.360;2023-04-25T08:19:29;14.80;99.90
5639;DHT22;2841;44.526;11.360;2023-04-25T08:21:56;14.90;99.90
5639;DHT22;2841;44.526;11.360;2023-04-25T08:24:23;15.10;99.90
5639;DHT22;2841;44.526;11.360;2023-04-25T08:26:50;15.10;99.00
5639;DHT22;2841;44.526;11.360;2023-04-25T08:29:17;15.10;99.90
5639;DHT22;2841;44.526;11.360;2023-04-25T08:31:45;14.90;99.90
5639;DHT22;2841;44.526;11.360;2023-04-25T08:34:12;14.80;99.90
5639;DHT22;2841;44.526;11.360;2023-04-25T08:36:38;14.70;99.90
5639;DHT22;2841;44.526;11.360;2023-04-25T08:39:05;14.50;99.90
5639;DHT22;2841;44.526;11.360;2023-04-25T08:41:32;14.30;99.90
5639;DHT22;2841;44.526;11.360;2023-04-25T08:43:59;14.20;99.90
5639;DHT22;2841;44.526;11.360;2023-04-25T08:46:26;14.10;99.90
5639;DHT22;2841;44.526;11.360;2023-04-25T08:48:54;14.00;99.90
5639;DHT22;2841;44.526;11.360;2023-04-25T08:51:23;14.10;99.90
5639;DHT22;2841;44.526;11.360;2023-04-25T08:53:51;14.20;99.90
5639;DHT22;2841;44.526;11.360;2023-04-25T08:56:18;14.40;99.90
5639;DHT22;2841;44.526;11.360;2023-04-25T08:58:47;14.50;99.90
5639;DHT22;2841;44.526;11.360;2023-04-25T09:01:14;14.60;99.90
5639;DHT22;2841;44.526;11.360;2023-04-25T09:03:41;14.80;99.90
5639;DHT22;2841;44.526;11.360;2023-04-25T09:06:10;14.90;99.90
5639;DHT22;2841;44.526;11.360;2023-04-25T09:08:37;15.00;99.90
5639;DHT22;2841;44.526;11.360;2023-04-25T09:11:05;15.00;99.90
5639;DHT22;2841;44.526;11.360;2023-04-25T09:13:32;15.10;99.90
5639;DHT22;2841;44.526;11.360;2023-04-25T09:15:59;15.10;99.90
5639;DHT22;2841;44.526;11.360;2023-04-25T09:18:27;15.10;99.90
5639;DHT22;2841;44.526;11.360;2023-04-25T09:20:54;15.10;99.90
5639;DHT22;2841;44.526;11.360;2023-04-25T09:23:22;15.20;99.40
5639;DHT22;2841;44.526;11.360;2023-04-25T09:25:49;15.20;99.50
5639;DHT22;2841;44.526;11.360;2023-04-25T09:28:19;15.20;99.20
5639;DHT22;2841;44.526;11.360;2023-04-25T09:30:49;15.30;98.00
5639;DHT22;2841;44.526;11.360;2023-04-25T09:33:15;15.30;97.80
5639;DHT22;2841;44.526;11.360;2023-04-25T09:35:43;15.20;97.00
5639;DHT22;2841;44.526;11.360;2023-04-25T09:38:10;15.20;97.20
5639;DHT22;2841;44.526;11.360;2023-04-25T09:40:42;15.20;97.50
5639;DHT22;2841;44.526;11.360;2023-04-25T09:43:09;15.20;96.50
5639;DHT22;2841;44.526;11.360;2023-04-25T09:45:43;15.20;96.50
5639;DHT22;2841;44.526;11.360;2023-04-25T09:48:11;15.20;96.30
5639;DHT22;2841;44.526;11.360;2023-04-25T09:50:39;15.20;95.90
5639;DHT22;2841;44.526;11.360;2023-04-25T09:53:06;15.20;96.00
5639;DHT22;2841;44.526;11.360;2023-04-25T09:55:32;15.30;95.30
5639;DHT22;2841;44.526;11.360;2023-04-25T09:58:03;15.30;95.20
5639;DHT22;2841;44.526;11.360;2023-04-25T10:00:30;15.30;94.60
5639;DHT22;2841;44.526;11.360;2023-04-25T10:02:57;15.40;93.90
5639;DHT22;2841;44.526;11.360;2023-04-25T10:05:27;15.40;93.30
5639;DHT22;2841;44.526;11.360;2023-04-25T10:07:54;15.50;92.90
5639;DHT22;2841;44.526;11.360;2023-04-25T10:10:21;15.60;92.70
5639;DHT22;2841;44.526;11.360;2023-04-25T10:12:51;15.70;92.20
5639;DHT22;2841;44.526;11.360;2023-04-25T10:15:19;15.80;91.60
5639;DHT22;2841;44.526;11.360;2023-04-25T10:17:46;15.90;91.30
5639;DHT22;2841;44.526;11.360;2023-04-25T10:20:13;16.00;91.30
5639;DHT22;2841;44.526;11.360;2023-04-25T10:22:41;16.10;91.00
5639;DHT22;2841;44.526;11.360;2023-04-25T10:25:08;16.20;90.50
5639;DHT22;2841;44.526;11.360;2023-04-25T10:27:35;16.40;90.20
5639;DHT22;2841;44.526;11.360;2023-04-25T10:30:02;16.60;89.50
5639;DHT22;2841;44.526;11.360;2023-04-25T10:32:32;16.70;88.20
5639;DHT22;2841;44.526;11.360;2023-04-25T10:35:04;16.90;87.80
5639;DHT22;2841;44.526;11.360;2023-04-25T10:37:36;17.00;87.30
5639;DHT22;2841;44.526;11.360;2023-04-25T10:40:07;17.20;85.70
5639;DHT22;2841;44.526;11.360;2023-04-25T10:42:35;17.20;85.10
5639;DHT22;2841;44.526;11.360;2023-04-25T10:45:02;17.30;84.80
5639;DHT22;2841;44.526;11.360;2023-04-25T10:47:43;17.30;84.60
5639;DHT22;2841;44.526;11.360;2023-04-25T10:50:11;17.50;84.60
5639;DHT22;2841;44.526;11.360;2023-04-25T10:52:38;17.70;84.00
5639;DHT22;2841;44.526;11.360;2023-04-25T10:55:05;17.80;83.20
5639;DHT22;2841;44.526;11.360;2023-04-25T10:57:36;17.90;82.80
5639;DHT22;2841;44.526;11.360;2023-04-25T11:00:07;18.10;82.80
5639;DHT22;2841;44.526;11.360;2023-04-25T11:02:43;18.20;81.70
5639;DHT22;2841;44.526;11.360;2023-04-25T11:05:10;18.30;81.30
5639;DHT22;2841;44.526;11.360;2023-04-25T11:07:44;18.40;80.90
5639;DHT22;2841;44.526;11.360;2023-04-25T11:10:14;18.50;80.60
5639;DHT22;2841;44.526;11.360;2023-04-25T11:12:41;18.60;80.40
5639;DHT22;2841;44.526;11.360;2023-04-25T11:15:08;18.70;80.10
5639;DHT22;2841;44.526;11.360;2023-04-25T11:17:35;18.70;79.90
5639;DHT22;2841;44.526;11.360;2023-04-25T11:20:03;18.80;79.90
5639;DHT22;2841;44.526;11.360;2023-04-25T11:22:34;18.90;79.70
5639;DHT22;2841;44.526;11.360;2023-04-25T11:25:04;18.90;79.30
5639;DHT22;2841;44.526;11.360;2023-04-25T11:27:31;18.90;78.80
5639;DHT22;2841;44.526;11.360;2023-04-25T11:29:58;18.90;78.80
5639;DHT22;2841;44.526;11.360;2023-04-25T11:32:24;18.80;78.50
5639;DHT22;2841;44.526;11.360;2023-04-25T11:34:52;18.80;78.40
5639;DHT22;2841;44.526;11.360;2023-04-25T11:37:20;18.80;78.20
5639;DHT22;2841;44.526;11.360;2023-04-25T11:39:46;18.80;77.90
5639;DHT22;2841;44.526;11.360;2023-04-25T11:42:13;18.70;77.60
5639;DHT22;2841;44.526;11.360;2023-04-25T11:44:40;18.60;77.40
5639;DHT22;2841;44.526;11.360;2023-04-25T11:47:07;18.40;77.40
5639;DHT22;2841;44.526;11.360;2023-04-25T11:49:33;18.30;77.40
5639;DHT22;2841;44.526;11.360;2023-04-25T11:52:01;18.20;77.50
5639;DHT22;2841;44.526;11.360;2023-04-25T11:54:29;18.20;77.60
5639;DHT22;2841;44.526;11.360;2023-04-25T11:56:56;18.10;77.50
5639;DHT22;2841;44.526;11.360;2023-04-25T11:59:23;18.10;77.30
5639;DHT22;2841;44.526;11.360;2023-04-25T12:01:50;18.10;77.30
5639;DHT22;2841;44.526;11.360;2023-04-25T12:04:17;18.00;77.00
5639;DHT22;2841;44.526;11.360;2023-04-25T12:06:45;18.00;76.80
5639;DHT22;2841;44.526;11.360;2023-04-25T12:09:13;18.10;76.70
5639;DHT22;2841;44.526;11.360;2023-04-25T12:11:42;18.20;76.60
5639;DHT22;2841;44.526;11.360;2023-04-25T12:14:09;18.30;76.40
5639;DHT22;2841;44.526;11.360;2023-04-25T12:16:40;18.50;76.00
5639;DHT22;2841;44.526;11.360;2023-04-25T12:19:07;18.60;75.60
5639;DHT22;2841;44.526;11.360;2023-04-25T12:21:35;18.70;75.20
5639;DHT22;2841;44.526;11.360;2023-04-25T12:24:09;18.90;75.00
5639;DHT22;2841;44.526;11.360;2023-04-25T12:26:51;19.10;74.80
5639;DHT22;2841;44.526;11.360;2023-04-25T12:29:19;19.10;74.20
5639;DHT22;2841;44.526;11.360;2023-04-25T12:31:46;19.20;74.10
5639;DHT22;2841;44.526;11.360;2023-04-25T12:34:12;19.40;74.10
5639;DHT22;2841;44.526;11.360;2023-04-25T12:36:39;19.60;73.70
5639;DHT22;2841;44.526;11.360;2023-04-25T12:39:06;19.70;73.20
5639;DHT22;2841;44.526;11.360;2023-04-25T12:41:33;19.60;72.90
5639;DHT22;2841;44.526;11.360;2023-04-25T12:44:01;19.60;72.90
5639;DHT22;2841;44.526;11.360;2023-04-25T12:46:28;20.00;73.20
5639;DHT22;2841;44.526;11.360;2023-04-25T12:48:55;20.20;72.40
5639;DHT22;2841;44.526;11.360;2023-04-25T12:51:22;20.10;71.60
5639;DHT22;2841;44.526;11.360;2023-04-25T12:53:50;19.80;71.70
5639;DHT22;2841;44.526;11.360;2023-04-25T12:56:17;19.60;71.80
5639;DHT22;2841;44.526;11.360;2023-04-25T12:58:44;19.40;72.00
5639;DHT22;2841;44.526;11.360;2023-04-25T13:01:13;19.30;72.00
5639;DHT22;2841;44.526;11.360;2023-04-25T13:03:40;19.20;71.90
5639;DHT22;2841;44.526;11.360;2023-04-25T13:06:06;19.30;72.10
5639;DHT22;2841;44.526;11.360;2023-04-25T13:08:33;19.40;71.90
5639;DHT22;2841;44.526;11.360;2023-04-25T13:11:00;19.30;71.60
5639;DHT22;2841;44.526;11.360;2023-04-25T13:13:27;19.10;71.50
5639;DHT22;2841;44.526;11.360;2023-04-25T13:15:53;18.90;71.60
5639;DHT22;2841;44.526;11.360;2023-04-25T13:18:22;18.80;71.80
5639;DHT22;2841;44.526;11.360;2023-04-25T13:20:51;18.70;71.80
5639;DHT22;2841;44.526;11.360;2023-04-25T13:23:18;18.90;71.90
5639;DHT22;2841;44.526;11.360;2023-04-25T13:25:45;18.90;71.60
5639;DHT22;2841;44.526;11.360;2023-04-25T13:28:12;19.00;71.50
5639;DHT22;2841;44.526;11.360;2023-04-25T13:30:39;18.90;71.30
5639;DHT22;2841;44.526;11.360;2023-04-25T13:33:05;18.80;71.10
5639;DHT22;2841;44.526;11.360;2023-04-25T13:35:34;18.60;70.90
5639;DHT22;2841;44.526;11.360;2023-04-25T13:38:01;18.50;71.10
5639;DHT22;2841;44.526;11.360;2023-04-25T13:40:28;18.40;71.10
5639;DHT22;2841;44.526;11.360;2023-04-25T13:42:55;18.20;71.00
5639;DHT22;2841;44.526;11.360;2023-04-25T13:45:21;18.00;71.00
5639;DHT22;2841;44.526;11.360;2023-04-25T13:47:48;17.70;71.00
5639;DHT22;2841;44.526;11.360;2023-04-25T13:50:15;17.70;71.30
5639;DHT22;2841;44.526;11.360;2023-04-25T13:52:43;17.80;71.20
5639;DHT22;2841;44.526;11.360;2023-04-25T13:55:10;17.90;71.00
5639;DHT22;2841;44.526;11.360;2023-04-25T13:57:37;17.90;70.50
5639;DHT22;2841;44.526;11.360;2023-04-25T14:00:04;18.00;70.30
5639;DHT22;2841;44.526;11.360;2023-04-25T14:02:34;17.90;70.00
5639;DHT22;2841;44.526;11.360;2023-04-25T14:05:01;17.90;70.00
5639;DHT22;2841;44.526;11.360;2023-04-25T14:07:28;18.00;70.20
5639;DHT22;2841;44.526;11.360;2023-04-25T14:09:57;18.10;69.90
5639;DHT22;2841;44.526;11.360;2023-04-25T14:12:23;18.10;69.80
5639;DHT22;2841;44.526;11.360;2023-04-25T14:14:50;18.20;69.80
5639;DHT22;2841;44.526;11.360;2023-04-25T14:17:17;18.20;69.50
5639;DHT22;2841;44.526;11.360;2023-04-25T14:19:44;18.20;69.40
5639;DHT22;2841;44.526;11.360;2023-04-25T14:22:13;18.10;69.50
5639;DHT22;2841;44.526;11.360;2023-04-25T14:24:40;18.00;69.40
5639;DHT22;2841;44.526;11.360;2023-04-25T14:27:08;17.80;69.40
5639;DHT22;2841;44.526;11.360;2023-04-25T14:29:34;17.50;69.50
5639;DHT22;2841;44.526;11.360;2023-04-25T14:32:01;17.30;69.70
5639;DHT22;2841;44.526;11.360;2023-04-25T14:34:28;17.20;70.00
5639;DHT22;2841;44.526;11.360;2023-04-25T14:36:55;17.20;70.10
5639;DHT22;2841;44.526;11.360;2023-04-25T14:39:22;17.10;70.00
5639;DHT22;2841;44.526;11.360;2023-04-25T14:41:48;17.00;70.00
5639;DHT22;2841;44.526;11.360;2023-04-25T14:44:17;17.00;70.00
5639;DHT22;2841;44.526;11.360;2023-04-25T14:46:43;17.10;70.10
5639;DHT22;2841;44.526;11.360;2023-04-25T14:49:10;17.10;69.90
5639;DHT22;2841;44.526;11.360;2023-04-25T14:51:37;17.10;70.00
5639;DHT22;2841;44.526;11.360;2023-04-25T14:54:04;17.10;69.70
5639;DHT22;2841;44.526;11.360;2023-04-25T14:56:31;17.10;69.60
5639;DHT22;2841;44.526;11.360;2023-04-25T14:58:58;17.20;69.50
5639;DHT22;2841;44.526;11.360;2023-04-25T15:01:28;17.40;69.40
5639;DHT22;2841;44.526;11.360;2023-04-25T15:03:54;17.60;69.00
5639;DHT22;2841;44.526;11.360;2023-04-25T15:06:22;17.80;68.70
5639;DHT22;2841;44.526;11.360;2023-04-25T15:08:51;18.00;68.40
5639;DHT22;2841;44.526;11.360;2023-04-25T15:11:18;18.10;68.20
5639;DHT22;2841;44.526;11.360;2023-04-25T15:13:45;17.90;67.90
5639;DHT22;2841;44.526;11.360;2023-04-25T15:16:12;17.80;68.10
5639;DHT22;2841;44.526;11.360;2023-04-25T15:18:40;17.80;68.20
5639;DHT22;2841;44.526;11.360;2023-04-25T15:21:07;18.10;68.50
5639;DHT22;2841;44.526;11.360;2023-04-25T15:23:33;19.20;68.10
5639;DHT22;2841;44.526;11.360;2023-04-25T15:26:00;20.60;66.40
5639;DHT22;2841;44.526;11.360;2023-04-25T15:28:27;21.20;64.70
5639;DHT22;2841;44.526;11.360;2023-04-25T15:30:53;21.40;64.50
5639;DHT22;2841;44.526;11.360;2023-04-25T15:33:20;21.10;64.40
5639;DHT22;2841;44.526;11.360;2023-04-25T15:35:48;20.80;64.90
5639;DHT22;2841;44.526;11.360;2023-04-25T15:38:15;20.70;65.10
5639;DHT22;2841;44.526;11.360;2023-04-25T15:40:42;20.50;65.20
5639;DHT22;2841;44.526;11.360;2023-04-25T15:43:08;20.50;65.70
5639;DHT22;2841;44.526;11.360;2023-04-25T15:45:40;21.10;65.50